createdAt,value
2023-01-20T00:02:42.110Z,6.72
2023-01-20T00:07:44.328Z,9.27
2023-01-20T00:12:46.419Z,8.10
2023-01-20T00:17:48.576Z,6.95
2023-01-20T00:22:50.661Z,7.85
2023-01-20T00:27:55.781Z,5.72
2023-01-20T00:32:58.007Z,5.47
2023-01-20T00:38:00.110Z,8.10
2023-01-20T00:43:02.230Z,6.70
2023-01-20T00:48:04.535Z,6.07
2023-01-20T00:53:06.871Z,7.05
2023-01-20T00:58:09.364Z,7.40
2023-01-20T01:03:12.817Z,7.53
2023-01-20T01:08:14.983Z,6.32
2023-01-20T01:13:17.125Z,8.02
2023-01-20T01:18:19.287Z,7.00
2023-01-20T01:23:21.415Z,6.28
2023-01-20T01:28:23.609Z,5.25
2023-01-20T01:33:25.897Z,6.00
2023-01-20T01:38:28.809Z,6.63
2023-01-20T01:43:33.889Z,7.70
2023-01-20T01:48:42.559Z,9.02
2023-01-20T01:53:49.092Z,7.63
2023-01-20T01:58:53.313Z,7.65
2023-01-20T02:04:07.611Z,6.93
2023-01-20T02:09:09.892Z,6.47
2023-01-20T02:14:12.278Z,6.22
2023-01-20T02:19:17.712Z,6.75
2023-01-20T02:25:17.404Z,7.20
2023-01-20T02:30:37.468Z,5.18
2023-01-20T02:36:11.107Z,6.18
2023-01-20T02:41:23.006Z,5.43
2023-01-20T02:46:49.579Z,5.05
2023-01-20T02:52:01.290Z,4.75
2023-01-20T02:57:06.998Z,5.60
2023-01-20T03:02:20.817Z,4.78
2023-01-20T03:07:25.986Z,5.38
2023-01-20T03:12:40.253Z,5.70
2023-01-20T03:17:42.513Z,4.93
2023-01-20T03:22:44.761Z,4.35
2023-01-20T03:27:47.325Z,6.45
2023-01-20T03:32:51.283Z,4.28
2023-01-20T03:37:53.516Z,4.15
2023-01-20T03:43:41.698Z,5.00
2023-01-20T03:49:18.897Z,4.22
2023-01-20T03:54:26.276Z,5.22
2023-01-20T03:59:28.615Z,4.50
2023-01-20T04:04:36.595Z,4.68
2023-01-20T04:09:44.507Z,4.20
2023-01-20T04:14:46.629Z,4.13
2023-01-20T04:19:48.994Z,4.68
2023-01-20T04:24:55.668Z,4.00
2023-01-20T04:29:57.732Z,3.88
2023-01-20T04:34:59.815Z,4.22
2023-01-20T04:40:01.918Z,4.90
2023-01-20T04:45:05.166Z,3.72
2023-01-20T04:50:08.589Z,4.30
2023-01-20T04:55:11.489Z,3.10
2023-01-20T05:00:19.888Z,3.58
2023-01-20T05:05:22.031Z,4.45
2023-01-20T05:10:24.344Z,3.58
2023-01-20T05:15:26.876Z,4.22
2023-01-20T05:20:29.620Z,4.45
2023-01-20T05:25:31.733Z,3.15
2023-01-20T05:30:33.921Z,3.40
2023-01-20T05:35:38.705Z,3.75
2023-01-20T05:40:40.783Z,4.63
2023-01-20T05:45:43.116Z,4.60
2023-01-20T05:50:45.264Z,4.43
2023-01-20T05:55:47.445Z,4.50
2023-01-20T06:00:49.492Z,5.28
2023-01-20T06:05:51.564Z,3.88
2023-01-20T06:10:54.000Z,3.50
2023-01-20T06:15:56.808Z,3.50
2023-01-20T06:20:59.266Z,2.72
2023-01-20T06:26:07.042Z,3.45
2023-01-20T06:31:15.190Z,5.32
2023-01-20T06:36:17.798Z,6.10
2023-01-20T06:41:20.812Z,4.43
2023-01-20T06:46:23.054Z,3.50
2023-01-20T06:51:25.232Z,3.17
2023-01-20T06:56:27.655Z,6.95
2023-01-20T07:01:31.260Z,6.25
2023-01-20T07:06:40.777Z,5.43
2023-01-20T07:11:42.944Z,5.82
2023-01-20T07:16:46.044Z,4.60
2023-01-20T07:21:48.206Z,4.93
2023-01-20T07:26:53.803Z,4.85
2023-01-20T07:31:56.223Z,3.88
2023-01-20T07:37:01.352Z,6.00
2023-01-20T07:42:03.558Z,4.90
2023-01-20T07:47:05.657Z,4.97
2023-01-20T07:52:07.773Z,4.38
2023-01-20T07:57:09.930Z,4.05
2023-01-20T08:02:12.068Z,6.00
2023-01-20T08:07:14.215Z,4.47
2023-01-20T08:12:16.295Z,4.93
2023-01-20T08:17:18.401Z,8.88
2023-01-20T08:22:20.553Z,4.72
2023-01-20T08:27:22.744Z,5.13
2023-01-20T08:32:24.797Z,5.10
2023-01-20T08:37:26.944Z,6.13
2023-01-20T08:42:29.080Z,6.43
2023-01-20T08:47:31.293Z,4.38
2023-01-20T08:52:34.155Z,4.07
2023-01-20T08:57:36.878Z,4.32
2023-01-20T09:02:39.040Z,4.55
2023-01-20T09:07:41.135Z,9.10
2023-01-20T09:12:43.240Z,7.57
2023-01-20T09:17:45.309Z,5.57
2023-01-20T09:22:47.552Z,4.45
2023-01-20T09:27:49.654Z,3.65
2023-01-20T09:32:53.900Z,4.55
2023-01-20T09:38:14.424Z,3.92
2023-01-20T09:43:56.880Z,5.88
2023-01-20T09:49:25.438Z,5.00
2023-01-20T09:54:34.345Z,6.13
2023-01-20T09:59:49.674Z,3.90
2023-01-20T10:05:08.532Z,4.03
2023-01-20T10:10:19.245Z,4.40
2023-01-20T10:15:43.059Z,4.05
2023-01-20T10:21:09.604Z,4.65
2023-01-20T10:26:11.654Z,4.63
2023-01-20T10:31:28.521Z,4.32
2023-01-20T10:36:34.904Z,4.80
2023-01-20T10:42:20.342Z,3.92
2023-01-20T10:47:44.130Z,4.53
2023-01-20T10:53:17.246Z,5.68
2023-01-20T10:58:37.869Z,6.32
2023-01-20T11:03:42.615Z,5.43
2023-01-20T11:08:44.742Z,5.10
2023-01-20T11:13:47.265Z,11.45
2023-01-20T11:19:04.348Z,11.93
2023-01-20T11:24:30.809Z,7.82
2023-01-20T11:29:38.620Z,7.47
2023-01-20T11:34:49.743Z,6.50
2023-01-20T11:40:26.333Z,7.22
2023-01-20T11:45:34.803Z,7.43
2023-01-20T11:50:54.540Z,7.53
2023-01-20T11:55:58.295Z,6.55
2023-01-20T12:01:08.399Z,8.43
2023-01-20T12:06:29.030Z,7.53
2023-01-20T12:11:36.202Z,11.98
2023-01-20T12:16:42.928Z,9.40
2023-01-20T12:21:53.612Z,7.38
2023-01-20T12:26:57.321Z,5.07
2023-01-20T12:32:01.058Z,4.43
2023-01-20T12:37:18.464Z,4.53
2023-01-20T12:42:47.841Z,3.47
2023-01-20T12:48:06.202Z,4.18
2023-01-20T12:53:31.055Z,4.63
2023-01-20T12:58:49.973Z,2.83
2023-01-20T13:04:05.048Z,2.63
2023-01-20T13:09:24.011Z,7.03
2023-01-20T13:14:41.320Z,12.43
2023-01-20T13:19:49.586Z,7.10
2023-01-20T13:24:58.250Z,9.90
2023-01-20T13:30:04.451Z,5.03
2023-01-20T13:35:25.607Z,3.92
2023-01-20T13:40:37.203Z,5.95
2023-01-20T13:45:39.406Z,2.60
2023-01-20T13:50:46.770Z,1.33
2023-01-20T13:55:48.939Z,3.03
2023-01-20T14:01:00.137Z,2.08
2023-01-20T14:06:07.512Z,1.30
2023-01-20T14:11:24.165Z,0.80
2023-01-20T14:16:30.884Z,1.33
2023-01-20T14:21:41.270Z,1.35
2023-01-20T14:26:44.444Z,1.48
2023-01-20T14:31:46.923Z,1.85
2023-01-20T14:36:49.402Z,1.48
2023-01-20T14:41:52.658Z,1.33
2023-01-20T14:46:58.530Z,1.33
2023-01-20T14:52:01.968Z,1.73
2023-01-20T14:57:21.320Z,1.40
2023-01-20T15:07:30.824Z,1.77
2023-01-20T15:12:52.996Z,1.60
2023-01-20T15:18:21.964Z,1.48
2023-01-20T15:23:33.181Z,2.90
2023-01-20T15:28:41.475Z,2.13
2023-01-20T15:33:44.657Z,1.10
2023-01-20T15:38:46.799Z,1.02
2023-01-20T15:43:52.448Z,1.15
2023-01-20T15:48:54.549Z,1.23
2023-01-20T15:53:56.658Z,0.90
2023-01-20T15:58:58.856Z,1.00
2023-01-20T16:04:00.962Z,2.88
2023-01-20T16:09:13.928Z,1.10
2023-01-20T16:14:16.102Z,1.83
2023-01-20T16:19:18.215Z,2.33
2023-01-20T16:24:20.297Z,2.45
2023-01-20T16:29:22.415Z,1.85
2023-01-20T16:34:24.689Z,1.58
2023-01-20T16:39:27.043Z,1.73
2023-01-20T16:44:29.659Z,2.33
2023-01-20T16:49:31.757Z,3.38
2023-01-20T16:54:33.841Z,2.33
2023-01-20T16:59:36.086Z,2.17
2023-01-20T17:04:38.963Z,5.13
2023-01-20T17:09:43.558Z,10.35
2023-01-20T17:14:45.633Z,10.98
2023-01-20T17:19:47.812Z,12.60
2023-01-20T17:24:49.876Z,16.95
2023-01-20T17:29:51.928Z,18.42
2023-01-20T17:34:54.038Z,39.30
2023-01-20T17:39:56.116Z,25.50
2023-01-20T17:45:01.969Z,17.05
2023-01-20T17:50:04.897Z,16.27
2023-01-20T17:55:07.511Z,17.25
2023-01-20T18:00:10.509Z,11.18
2023-01-20T18:05:12.704Z,11.88
2023-01-20T18:10:17.346Z,24.92
2023-01-20T18:15:21.314Z,17.95
2023-01-20T18:20:23.858Z,16.73
2023-01-20T18:25:25.924Z,15.40
2023-01-20T18:30:28.014Z,11.55
2023-01-20T18:35:30.866Z,13.73
2023-01-20T18:40:33.161Z,11.02
2023-01-20T18:45:35.304Z,9.13
2023-01-20T18:50:37.611Z,9.10
2023-01-20T18:55:39.912Z,9.38
2023-01-20T19:00:42.217Z,9.00
2023-01-20T19:05:44.395Z,9.50
2023-01-20T19:10:46.573Z,10.15
2023-01-20T19:15:48.642Z,10.80
2023-01-20T19:20:51.142Z,13.48
2023-01-20T19:26:09.998Z,15.25
2023-01-20T19:31:18.424Z,21.90
2023-01-20T19:36:20.774Z,12.85
2023-01-20T19:41:27.794Z,9.32
2023-01-20T19:46:32.443Z,11.48
2023-01-20T19:51:34.730Z,11.27
2023-01-20T19:56:37.135Z,18.77
2023-01-20T20:01:39.540Z,11.27
2023-01-20T20:06:46.273Z,11.57
2023-01-20T20:11:50.288Z,13.80
2023-01-20T20:16:52.570Z,12.00
2023-01-20T20:21:57.633Z,12.90
2023-01-20T20:26:59.912Z,13.93
2023-01-20T20:32:02.213Z,16.48
2023-01-20T20:37:04.315Z,11.80
2023-01-20T20:42:06.421Z,11.98
2023-01-20T20:47:08.697Z,14.20
2023-01-20T20:52:10.896Z,12.27
2023-01-20T20:57:13.106Z,14.27
2023-01-20T21:02:15.252Z,12.20
2023-01-20T21:07:19.333Z,11.15
2023-01-20T21:12:21.602Z,11.80
2023-01-20T21:17:23.670Z,11.25
2023-01-20T21:22:26.087Z,11.07
2023-01-20T21:27:28.239Z,9.00
2023-01-20T21:32:30.876Z,12.65
2023-01-20T21:37:33.101Z,11.35
2023-01-20T21:42:35.223Z,17.52
2023-01-20T21:47:37.383Z,13.90
2023-01-20T21:52:42.361Z,14.77
2023-01-20T21:57:50.166Z,11.70
2023-01-20T22:02:53.188Z,10.88
2023-01-20T22:07:55.265Z,10.00
2023-01-20T22:12:57.417Z,15.45
2023-01-20T22:17:59.477Z,15.38
2023-01-20T22:23:03.015Z,9.65
2023-01-20T22:28:05.322Z,9.40
2023-01-20T22:33:07.541Z,18.23
2023-01-20T22:38:10.942Z,11.82
2023-01-20T22:43:13.051Z,33.53
2023-01-20T22:48:15.222Z,15.23
2023-01-20T22:53:17.917Z,11.30
2023-01-20T22:58:20.196Z,10.30
2023-01-20T23:03:22.732Z,20.55
2023-01-20T23:08:28.918Z,13.13
2023-01-20T23:13:31.130Z,13.07
2023-01-20T23:18:33.416Z,15.05
2023-01-20T23:23:35.611Z,13.82
2023-01-20T23:28:37.855Z,12.65
2023-01-20T23:33:43.338Z,9.88
2023-01-20T23:38:45.990Z,9.75
2023-01-20T23:43:48.138Z,12.40
2023-01-20T23:48:50.375Z,10.73
2023-01-20T23:53:52.543Z,10.70
2023-01-20T23:58:54.901Z,10.82
